熊本空港の過去48時間の天気

熊本空港 (Kumamoto)

現在時刻: 1/19 20:34 JST (1/19 11:34 UTC) 以下の時間は現地時間です。

過去48時間のMETAR気象情報
時間 風向 風速(m/s) 視程 気温(℃) 湿度(%) 気圧(hPa) 天気現象
19 20:00 北西 2 10km以上 8 71 1019
19 19:00 南東 2 10km以上 9 71 1020
19 18:00 不定 1 10km以上 10 62 1020
19 17:00 不定 1 10km以上 11 62 1020
19 16:00 2 10km以上 11 58 1021
19 15:00 2 10km以上 11 54 1021
19 14:00 西南西 4 10km以上 12 50 1023
19 13:00 西南西 3 10km以上 11 54 1024
19 12:00 南南西 3 10km以上 10 50 1025
19 11:00 不定 1 10km以上 10 43 1026
19 10:00 不定 1 10km以上 8 49 1026
19 09:00 東北東 2 10km以上 5 70 1026
19 08:00 不定 1 10km以上 1 75 1026
19 07:00 東北東 2 10km以上 0 80 1025
19 06:10 東北東 2 10km以上 0 80 1025
18 21:00 東北東 2 10km以上 3 60 1026
18 20:00 東北東 3 10km以上 3 65 1026
18 19:00 南東 1 10km以上 4 60 1025
18 18:00 南南西 2 10km以上 6 52 1025
18 17:00 南南西 2 10km以上 9 40 1025
18 16:00 西南西 5 10km以上 10 43 1024
18 15:00 南西 3 10km以上 11 40 1024
18 14:00 不定 2 10km以上 10 40 1024
18 13:00 不定 1 10km以上 10 43 1024
18 12:00 3 10km以上 9 50 1026
18 11:00 西南西 3 10km以上 8 49 1027
18 10:00 不定 1 10km以上 7 53 1027
18 09:00 東北東 1 10km以上 5 70 1026
18 08:00 東北東 2 10km以上 1 86 1025
18 07:00 東北東 2 10km以上 0 93 1025
18 06:10 東北東 2 10km以上 1 86 1024
17 21:00 西南西 2 10km以上 5 56 1023
RJFT 191100Z 31003KT 9999 FEW035 08/03 Q1019
RJFT 191000Z 14003KT 120V180 9999 FEW035 BKN070 09/04 Q1020
RJFT 190900Z VRB02KT 9999 FEW040 SCT050 BKN070 10/03 Q1020
RJFT 190800Z VRB02KT 9999 FEW040 SCT050 BKN060 11/04 Q1020
RJFT 190700Z 01004KT 340V040 9999 FEW035 BKN050 BKN070 11/03 Q1021
RJFT 190600Z 10003KT 020V140 9999 FEW035 BKN060 11/02 Q1021
RJFT 190500Z 25007KT 220V280 9999 FEW035 SCT040 BKN050 12/02 Q1023
RJFT 190400Z 24005KT 170V300 9999 FEW035 BKN045 11/02 Q1024
RJFT 190300Z 21005KT 130V260 9999 FEW035 10/00 Q1025
RJFT 190200Z VRB02KT 9999 FEW030 10/M02 Q1026
RJFT 190100Z VRB02KT 9999 FEW040 08/M02 Q1026
RJFT 190000Z 06003KT CAVOK 05/M00 Q1026
RJFT 182300Z VRB02KT CAVOK 01/M03 Q1026
RJFT 182200Z 07003KT CAVOK 00/M03 Q1025
RJFT 182110Z 06004KT CAVOK M00/M03 Q1025 RMK A3027
RJFT 181200Z 07004KT CAVOK 03/M04 Q1026
RJFT 181100Z 06005KT CAVOK 03/M03 Q1026
RJFT 181000Z 13002KT CAVOK 04/M03 Q1025
RJFT 180900Z 20004KT CAVOK 06/M03 Q1025
RJFT 180800Z 20003KT 160V250 CAVOK 09/M04 Q1025
RJFT 180700Z 24009KT 9999 FEW035 10/M02 Q1024
RJFT 180600Z 22006KT 190V260 9999 FEW035 11/M02 Q1024
RJFT 180500Z VRB04KT 9999 FEW035 10/M03 Q1024
RJFT 180400Z VRB02KT 9999 FEW035 10/M02 Q1024
RJFT 180300Z VRB05KT 9999 FEW035 09/M01 Q1026
RJFT 180200Z 25005KT 220V310 9999 FEW035 08/M02 Q1027
RJFT 180100Z VRB02KT CAVOK 07/M02 Q1027
RJFT 180000Z 06002KT CAVOK 05/00 Q1026
RJFT 172300Z 07004KT CAVOK 01/M01 Q1025
RJFT 172200Z 06003KT 010V190 CAVOK 00/M01 Q1025
RJFT 172110Z 06004KT CAVOK 01/M01 Q1024 RMK A3026
RJFT 171200Z 24004KT 200V280 9999 FEW040 BKN050 05/M03 Q1023